sim
Sign-in with your pilot id or email,
or register
Callsign
Passwort

Schedule Details

Flight Number: DLH2250
Departure: Munich Airport (EDDM) at 13:50
Arrival: Lyon Saint Exupery Airport (LFLL) at 15:10
Route: Lufthansa Passenger Schedule. Enter filed route here before submitting Pirep.

Weather Information
Getting current METAR information for EDDM 191620Z 05003KT CAVOK 20/12 Q1018 NOSIG
Getting current METAR information for LFLL 191600Z 25010KT 9999 FEW066TCU SCT090 BKN130 22/15 Q1015 NOSIG

Schedule Frequency

Route Map